Time;durP1;ratioP1;P1;durP2;ratioP2;P2;SDS_P1;SDS_P2;PMS_P1;PMS_P2;Temp;Humidity;BMP_temperature;BMP_pressure;BME280_temperature;BME280_humidity;BME280_pressure;Samples;Min_cycle;Max_cycle;Signal;HPM_P1;HPM_P2
2022/02/23 00:00:32;;;;;;;1.77;0.70;;;18.70;47.10;;;;;;6171977;28;20107;-67
2022/02/23 00:03:33;;;;;;;1.70;0.90;;;18.70;47.10;;;;;;6172076;28;20035;-67
2022/02/23 00:06:34;;;;;;;2.22;1.08;;;18.70;47.10;;;;;;6171725;28;20046;-66
2022/02/23 00:09:34;;;;;;;1.70;0.85;;;18.70;47.10;;;;;;6171736;28;20026;-67
2022/02/23 00:12:35;;;;;;;1.63;0.82;;;18.70;47.10;;;;;;6170613;28;20023;-66
2022/02/23 00:15:35;;;;;;;3.00;1.00;;;18.70;47.10;;;;;;6171214;28;20557;-67
2022/02/23 00:18:36;;;;;;;2.42;0.80;;;18.70;47.10;;;;;;6171365;28;20054;-67
2022/02/23 00:21:36;;;;;;;3.55;1.00;;;18.70;47.00;;;;;;6171734;28;20027;-67
2022/02/23 00:24:37;;;;;;;1.30;0.85;;;18.70;47.00;;;;;;6171129;28;20030;-67
2022/02/23 00:27:37;;;;;;;1.95;0.88;;;18.70;47.00;;;;;;6171436;28;20034;-66
2022/02/23 00:30:38;;;;;;;2.88;1.00;;;18.70;47.00;;;;;;6171254;28;20019;-67
2022/02/23 00:33:38;;;;;;;2.47;1.00;;;18.70;47.00;;;;;;6170893;28;20482;-66
2022/02/23 00:36:39;;;;;;;1.75;0.93;;;18.70;47.00;;;;;;6171292;28;20033;-67
2022/02/23 00:39:39;;;;;;;2.63;0.80;;;18.70;47.00;;;;;;6171714;28;20034;-67
2022/02/23 00:42:40;;;;;;;1.58;0.82;;;18.70;47.00;;;;;;6158379;28;20034;-67
2022/02/23 00:45:40;;;;;;;1.98;1.08;;;18.70;47.00;;;;;;6146997;29;20186;-67
2022/02/23 00:48:41;;;;;;;1.98;0.75;;;18.70;47.00;;;;;;6156231;28;20055;-67
2022/02/23 00:51:41;;;;;;;2.40;1.10;;;18.70;47.00;;;;;;6170782;28;20027;-67
2022/02/23 00:54:42;;;;;;;2.72;1.30;;;18.70;46.90;;;;;;6170463;28;20355;-64
2022/02/23 00:57:43;;;;;;;1.95;0.90;;;18.70;46.90;;;;;;6170773;28;20077;-68
2022/02/23 01:00:43;;;;;;;3.05;0.98;;;18.70;47.00;;;;;;6170623;28;20101;-67
2022/02/23 01:03:44;;;;;;;2.03;0.93;;;18.70;47.00;;;;;;6170535;28;20054;-67
2022/02/23 01:06:45;;;;;;;3.03;1.10;;;18.70;47.00;;;;;;6170332;28;20039;-67
2022/02/23 01:09:46;;;;;;;1.95;1.00;;;18.70;47.00;;;;;;6170731;28;20074;-67
2022/02/23 01:12:47;;;;;;;2.90;1.20;;;18.70;47.00;;;;;;6170193;28;20532;-67
2022/02/23 01:15:48;;;;;;;2.70;1.05;;;18.70;47.00;;;;;;6170660;28;20027;-68
2022/02/23 01:18:48;;;;;;;2.53;0.80;;;18.70;47.00;;;;;;6170080;28;20381;-66
2022/02/23 01:21:49;;;;;;;2.30;1.10;;;18.70;47.00;;;;;;6170029;28;20035;-68
2022/02/23 01:24:49;;;;;;;2.05;0.93;;;18.70;47.00;;;;;;6169641;28;20027;-67
2022/02/23 01:27:51;;;;;;;3.10;0.85;;;18.70;47.70;;;;;;6169831;28;20533;-67
2022/02/23 01:30:52;;;;;;;1.88;0.80;;;18.70;47.00;;;;;;6170305;28;20034;-67
2022/02/23 01:33:52;;;;;;;2.38;0.85;;;18.70;47.00;;;;;;6169274;28;20031;-67
2022/02/23 01:36:53;;;;;;;2.00;0.88;;;18.70;47.10;;;;;;6169752;28;20106;-67
2022/02/23 01:39:53;;;;;;;2.13;0.85;;;18.70;47.10;;;;;;6169911;28;20101;-67
2022/02/23 01:42:54;;;;;;;1.50;0.80;;;18.70;47.10;;;;;;6155093;28;20435;-67
2022/02/23 01:45:54;;;;;;;2.45;1.00;;;18.70;47.10;;;;;;6145657;29;20082;-67
2022/02/23 01:48:55;;;;;;;3.00;0.93;;;18.70;47.10;;;;;;6145800;29;20031;-67
2022/02/23 01:51:55;;;;;;;1.73;0.90;;;18.70;47.10;;;;;;6145762;29;20098;-67
2022/02/23 01:54:56;;;;;;;1.80;0.90;;;18.70;47.70;;;;;;6145711;29;20073;-67
2022/02/23 01:57:57;;;;;;;1.23;0.82;;;18.70;47.00;;;;;;6145609;29;20058;-67
2022/02/23 02:00:58;;;;;;;1.90;0.93;;;18.70;47.10;;;;;;6146600;28;20126;-67
2022/02/23 02:03:58;;;;;;;1.60;0.75;;;18.70;47.10;;;;;;6169627;28;20474;-67
2022/02/23 02:06:59;;;;;;;1.75;0.88;;;18.70;47.00;;;;;;6169457;28;20027;-67
2022/02/23 02:10:00;;;;;;;2.50;0.82;;;18.70;47.10;;;;;;6169375;28;20516;-67
2022/02/23 02:13:00;;;;;;;2.75;0.90;;;18.70;47.10;;;;;;6169530;28;20055;-67
2022/02/23 02:16:01;;;;;;;2.55;0.85;;;18.70;47.10;;;;;;6169264;28;20073;-67
2022/02/23 02:19:03;;;;;;;2.25;0.98;;;18.70;47.10;;;;;;6169525;28;20027;-67
2022/02/23 02:22:06;;;;;;;2.25;0.95;;;18.70;47.10;;;;;;6169661;28;20039;-67
2022/02/23 02:25:07;;;;;;;4.47;1.40;;;18.70;47.10;;;;;;6169383;28;20110;-66
2022/02/23 02:28:08;;;;;;;2.63;1.08;;;18.70;47.00;;;;;;6169298;28;20391;-67
2022/02/23 02:31:08;;;;;;;2.35;0.90;;;18.70;47.00;;;;;;6169514;28;20030;-67
2022/02/23 02:34:09;;;;;;;3.63;0.95;;;18.70;47.00;;;;;;6150775;28;20538;-67
2022/02/23 02:37:10;;;;;;;3.08;1.17;;;18.70;47.00;;;;;;6147243;28;20035;-67
2022/02/23 02:40:11;;;;;;;2.35;1.05;;;18.70;47.10;;;;;;6149797;28;20074;-67
2022/02/23 02:43:11;;;;;;;3.40;0.82;;;18.70;47.10;;;;;;6149840;28;20031;-65
2022/02/23 02:46:12;;;;;;;3.33;1.23;;;18.70;47.00;;;;;;6149275;29;20407;-67
2022/02/23 02:49:13;;;;;;;3.75;1.33;;;18.70;47.00;;;;;;6149799;29;20027;-67
2022/02/23 02:52:13;;;;;;;1.92;0.98;;;18.70;47.10;;;;;;6149645;29;20043;-68
2022/02/23 02:55:14;;;;;;;2.95;1.05;;;18.70;47.10;;;;;;6149646;29;20059;-67
2022/02/23 02:58:14;;;;;;;3.33;1.05;;;18.70;47.10;;;;;;6149347;29;20066;-68
2022/02/23 03:01:16;;;;;;;2.72;1.10;;;18.70;47.00;;;;;;6149975;29;20082;-67
2022/02/23 03:04:16;;;;;;;1.60;0.75;;;18.70;47.10;;;;;;6149278;29;20102;-66
2022/02/23 03:07:17;;;;;;;2.92;1.10;;;18.70;47.10;;;;;;6149468;29;20206;-67
2022/02/23 03:10:17;;;;;;;4.15;1.27;;;18.70;47.10;;;;;;6149560;29;20443;-67
2022/02/23 03:13:18;;;;;;;4.10;1.50;;;18.70;47.20;;;;;;6149784;29;20035;-67
2022/02/23 03:16:19;;;;;;;2.00;1.08;;;18.70;47.10;;;;;;6149326;29;20510;-67
2022/02/23 03:19:20;;;;;;;1.88;0.95;;;18.60;47.00;;;;;;6149744;28;20047;-67
2022/02/23 03:22:21;;;;;;;1.52;0.80;;;18.70;47.10;;;;;;6149256;29;20023;-67
2022/02/23 03:25:21;;;;;;;2.13;0.95;;;18.70;47.10;;;;;;6149081;29;20031;-67
2022/02/23 03:28:23;;;;;;;2.85;1.08;;;18.70;47.10;;;;;;6149157;29;20126;-67
2022/02/23 03:31:23;;;;;;;1.85;0.75;;;18.70;47.10;;;;;;6148034;29;20026;-67
2022/02/23 03:34:24;;;;;;;5.38;1.25;;;18.70;47.10;;;;;;6168791;28;20374;-66
2022/02/23 03:37:24;;;;;;;2.67;0.90;;;18.60;47.00;;;;;;6169250;28;20035;-67
2022/02/23 03:40:26;;;;;;;1.85;0.93;;;18.70;47.10;;;;;;6172385;28;20555;-66
2022/02/23 03:43:26;;;;;;;1.85;1.00;;;18.70;47.10;;;;;;6153893;28;20465;-67
2022/02/23 03:46:27;;;;;;;5.75;1.20;;;18.60;47.00;;;;;;6148073;29;20042;-67
2022/02/23 03:49:28;;;;;;;1.73;0.90;;;18.60;47.00;;;;;;6160402;28;20422;-66
2022/02/23 03:52:29;;;;;;;2.97;1.13;;;18.60;46.90;;;;;;6171739;28;20030;-67
2022/02/23 03:55:31;;;;;;;2.33;0.90;;;18.60;47.00;;;;;;6171436;28;20387;-67
2022/02/23 03:58:32;;;;;;;2.67;0.93;;;18.60;47.00;;;;;;6171352;28;20038;-67
2022/02/23 04:01:33;;;;;;;2.35;1.00;;;18.60;47.00;;;;;;6171070;28;20410;-67
2022/02/23 04:04:34;;;;;;;2.70;1.00;;;18.60;47.00;;;;;;6171262;28;20022;-67
2022/02/23 04:07:35;;;;;;;2.13;0.98;;;18.60;47.00;;;;;;6171033;28;20026;-67
2022/02/23 04:10:36;;;;;;;3.13;1.00;;;18.60;47.10;;;;;;6171603;28;20035;-67
2022/02/23 04:13:36;;;;;;;1.65;0.88;;;18.60;47.00;;;;;;6172101;28;20463;-67
2022/02/23 04:16:37;;;;;;;3.90;1.23;;;18.70;47.10;;;;;;6171683;28;20039;-67
2022/02/23 04:19:38;;;;;;;2.28;0.60;;;18.60;47.00;;;;;;6171592;28;20035;-67
2022/02/23 04:22:39;;;;;;;3.53;1.05;;;18.60;47.00;;;;;;6171465;28;20613;-66
2022/02/23 04:25:41;;;;;;;2.28;1.00;;;18.60;47.10;;;;;;6171371;28;20027;-67
2022/02/23 04:28:42;;;;;;;3.72;0.90;;;18.60;47.00;;;;;;6171454;28;20066;-67
2022/02/23 04:31:43;;;;;;;3.65;1.13;;;18.60;47.00;;;;;;6171343;28;20019;-67
2022/02/23 04:34:44;;;;;;;3.20;0.82;;;18.60;47.00;;;;;;6171028;28;20414;-67
2022/02/23 04:37:44;;;;;;;3.08;1.30;;;18.60;47.00;;;;;;6170941;28;20065;-66
2022/02/23 04:40:45;;;;;;;1.40;0.73;;;18.60;47.00;;;;;;6171218;28;20031;-67
2022/02/23 04:43:46;;;;;;;1.42;0.85;;;18.60;47.00;;;;;;6170903;28;20390;-67
2022/02/23 04:46:46;;;;;;;1.92;1.05;;;18.60;47.10;;;;;;6171085;28;20031;-67
2022/02/23 04:49:47;;;;;;;1.98;0.80;;;18.60;47.10;;;;;;6170946;28;20035;-67
2022/02/23 04:52:47;;;;;;;3.28;1.10;;;18.60;47.00;;;;;;6170900;28;20031;-67
2022/02/23 04:55:48;;;;;;;2.50;0.93;;;18.60;47.10;;;;;;6170685;28;20695;-67
2022/02/23 04:58:49;;;;;;;0.90;0.55;;;18.60;47.20;;;;;;6170342;28;20019;-67
2022/02/23 05:01:49;;;;;;;4.10;1.08;;;18.60;47.10;;;;;;6170602;28;20042;-67
2022/02/23 05:04:50;;;;;;;1.38;0.90;;;18.60;47.10;;;;;;6170638;28;20031;-67
2022/02/23 05:07:50;;;;;;;2.53;0.90;;;18.60;47.20;;;;;;6170495;28;20448;-67
2022/02/23 05:10:51;;;;;;;2.13;0.82;;;18.60;47.00;;;;;;6170566;28;20557;-67
2022/02/23 05:13:52;;;;;;;1.10;0.57;;;18.60;47.10;;;;;;6170234;28;20054;-67
2022/02/23 05:16:52;;;;;;;3.83;1.10;;;18.60;47.10;;;;;;6170488;28;20037;-67
2022/02/23 05:19:53;;;;;;;2.80;0.90;;;18.60;47.10;;;;;;6170407;28;20406;-67
2022/02/23 05:22:53;;;;;;;2.42;0.80;;;18.60;47.20;;;;;;6170307;28;20077;-67
2022/02/23 05:25:56;;;;;;;2.00;0.85;;;18.60;47.10;;;;;;6170264;28;20292;-68
2022/02/23 05:28:57;;;;;;;2.58;0.80;;;18.60;47.20;;;;;;6170038;28;20066;-67
2022/02/23 05:31:58;;;;;;;2.50;0.88;;;18.60;47.10;;;;;;6170126;28;20236;-66
2022/02/23 05:34:59;;;;;;;2.58;1.10;;;18.60;47.10;;;;;;6170269;28;20031;-66
2022/02/23 05:37:59;;;;;;;3.22;1.08;;;18.60;47.10;;;;;;6169900;28;20081;-67
2022/02/23 05:41:03;;;;;;;2.72;0.90;;;18.60;47.10;;;;;;6170044;28;20581;-67
2022/02/23 05:44:04;;;;;;;1.77;0.95;;;18.60;47.10;;;;;;6146087;28;20036;-67
2022/02/23 05:47:05;;;;;;;2.60;1.00;;;18.60;47.20;;;;;;6146462;29;20035;-67
2022/02/23 05:50:06;;;;;;;3.63;1.00;;;18.60;47.10;;;;;;6145913;29;20119;-67
2022/02/23 05:53:06;;;;;;;3.40;1.20;;;18.60;47.10;;;;;;6146082;29;20039;-67
2022/02/23 05:56:07;;;;;;;2.70;1.10;;;18.70;47.30;;;;;;6145704;29;20082;-67
2022/02/23 05:59:08;;;;;;;1.95;1.02;;;18.70;47.20;;;;;;6168767;28;20093;-67
2022/02/23 06:02:09;;;;;;;2.08;0.95;;;18.70;47.10;;;;;;6157334;28;20329;-67
2022/02/23 06:05:10;;;;;;;1.52;0.80;;;18.70;47.20;;;;;;6145659;28;20522;-67
2022/02/23 06:08:10;;;;;;;1.73;0.95;;;18.60;47.10;;;;;;6145952;28;20399;-67
2022/02/23 06:11:13;;;;;;;1.60;0.73;;;18.60;47.10;;;;;;6147760;28;20066;-67
2022/02/23 06:14:14;;;;;;;1.35;0.77;;;18.60;47.10;;;;;;6150562;28;20123;-67
2022/02/23 06:17:14;;;;;;;2.35;1.00;;;18.60;47.10;;;;;;6150382;28;20020;-67
2022/02/23 06:20:15;;;;;;;2.05;0.98;;;18.70;47.20;;;;;;6150425;28;20043;-67
2022/02/23 06:23:15;;;;;;;3.45;1.00;;;18.70;47.20;;;;;;6150181;28;20056;-67
2022/02/23 06:26:16;;;;;;;2.45;0.90;;;18.60;47.10;;;;;;6150164;28;20057;-67
2022/02/23 06:29:16;;;;;;;1.75;0.80;;;18.70;47.30;;;;;;6150246;28;20039;-67
2022/02/23 06:32:17;;;;;;;2.30;1.02;;;18.70;47.20;;;;;;6153363;28;20085;-67
2022/02/23 06:35:18;;;;;;;2.13;0.93;;;18.70;47.20;;;;;;6173942;28;20505;-67
2022/02/23 06:38:19;;;;;;;1.70;0.93;;;18.70;47.10;;;;;;6173947;28;20229;-67
2022/02/23 06:41:22;;;;;;;2.67;0.93;;;18.70;47.20;;;;;;6171834;28;20042;-66
2022/02/23 06:44:23;;;;;;;2.38;0.93;;;18.70;47.10;;;;;;6149810;29;20119;-67
2022/02/23 06:47:24;;;;;;;2.53;1.00;;;18.70;47.10;;;;;;6149601;29;20059;-67
2022/02/23 06:50:25;;;;;;;1.95;0.80;;;18.70;47.10;;;;;;6149982;29;20442;-67
2022/02/23 06:53:26;;;;;;;1.67;0.88;;;18.70;47.10;;;;;;6147071;28;20035;-67
2022/02/23 06:56:26;;;;;;;2.10;0.77;;;18.70;47.10;;;;;;6163891;28;20059;-67
2022/02/23 06:59:27;;;;;;;4.32;1.42;;;18.70;47.00;;;;;;6168256;28;20041;-67
2022/02/23 07:02:28;;;;;;;2.85;1.00;;;18.70;47.10;;;;;;6170502;28;20026;-67
2022/02/23 07:05:28;;;;;;;4.07;1.23;;;18.70;47.20;;;;;;6173851;28;20485;-67
2022/02/23 07:08:29;;;;;;;7.93;1.35;;;18.70;47.10;;;;;;6173709;28;20031;-67
2022/02/23 07:11:32;;;;;;;2.85;1.00;;;18.70;47.20;;;;;;6173267;28;20493;-67
2022/02/23 07:14:33;;;;;;;3.05;1.08;;;18.70;47.20;;;;;;6173701;28;20053;-67
2022/02/23 07:17:33;;;;;;;5.70;1.20;;;18.70;47.20;;;;;;6173904;28;20030;-67
2022/02/23 07:20:34;;;;;;;2.65;1.20;;;18.70;47.30;;;;;;6173688;28;20041;-67
2022/02/23 07:23:36;;;;;;;4.38;1.20;;;18.70;47.30;;;;;;6172487;28;20061;-67
2022/02/23 07:26:36;;;;;;;3.88;1.30;;;18.70;47.30;;;;;;6173153;28;20153;-66
2022/02/23 07:29:37;;;;;;;5.38;1.40;;;18.70;47.70;;;;;;6173526;28;20035;-67
2022/02/23 07:32:38;;;;;;;5.43;1.27;;;18.70;47.00;;;;;;6167256;28;20490;-67
2022/02/23 07:35:39;;;;;;;7.47;1.58;;;18.70;47.10;;;;;;6149194;28;20057;-67
2022/02/23 07:38:41;;;;;;;3.03;1.30;;;18.70;47.10;;;;;;6149364;28;20051;-67
2022/02/23 07:41:42;;;;;;;4.50;1.48;;;18.70;47.10;;;;;;6149111;28;20039;-66
2022/02/23 07:44:43;;;;;;;5.68;1.35;;;18.70;47.10;;;;;;6149103;29;20090;-67
2022/02/23 07:47:43;;;;;;;4.13;1.35;;;18.70;47.10;;;;;;6157568;28;20030;-66
2022/02/23 07:50:44;;;;;;;3.53;1.20;;;18.70;47.10;;;;;;6173152;28;20034;-67
2022/02/23 07:53:45;;;;;;;2.47;1.10;;;18.70;47.10;;;;;;6173124;28;20026;-66
2022/02/23 07:56:45;;;;;;;5.28;1.95;;;18.70;47.10;;;;;;6172109;28;20129;-66
2022/02/23 07:59:46;;;;;;;4.15;1.35;;;18.70;47.10;;;;;;6172771;28;20102;-67
2022/02/23 08:02:47;;;;;;;4.90;1.50;;;18.70;47.10;;;;;;6172586;28;20069;-67
2022/02/23 08:05:48;;;;;;;5.10;1.52;;;18.70;47.10;;;;;;6172604;28;20073;-67
2022/02/23 08:08:49;;;;;;;3.67;1.55;;;18.70;47.10;;;;;;6172692;28;20023;-66
2022/02/23 08:11:50;;;;;;;4.32;1.45;;;18.70;47.10;;;;;;6172621;28;20533;-66
2022/02/23 08:14:53;;;;;;;4.22;1.40;;;18.70;47.10;;;;;;6172163;28;20033;-66
2022/02/23 08:21:14;;;;;;;5.28;1.65;;;18.70;47.30;;;;;;6172088;28;20058;-67
2022/02/23 08:24:14;;;;;;;6.93;2.17;;;18.70;47.30;;;;;;6171662;28;20023;-66
2022/02/23 08:27:17;;;;;;;7.93;1.10;;;18.70;47.30;;;;;;6171831;28;20394;-67
2022/02/23 08:30:18;;;;;;;3.63;1.13;;;18.70;47.30;;;;;;6171829;28;20042;-67
2022/02/23 08:33:19;;;;;;;5.57;1.35;;;18.70;47.30;;;;;;6160451;28;20027;-66
2022/02/23 08:36:19;;;;;;;5.95;1.65;;;18.70;47.30;;;;;;6147414;28;20062;-66
2022/02/23 08:39:20;;;;;;;3.92;1.30;;;18.70;47.30;;;;;;6148341;28;20118;-67
2022/02/23 08:42:20;;;;;;;11.73;1.35;;;18.70;47.30;;;;;;6147731;28;20386;-66
2022/02/23 08:45:21;;;;;;;3.72;1.38;;;18.70;47.30;;;;;;6147612;29;20043;-67
2022/02/23 08:48:22;;;;;;;5.28;1.80;;;18.70;47.30;;;;;;6161174;28;20035;-67
2022/02/23 08:51:22;;;;;;;11.02;1.80;;;18.70;47.30;;;;;;6171701;28;20023;-67
2022/02/23 08:54:23;;;;;;;7.32;1.48;;;18.70;47.50;;;;;;6170571;28;20035;-67
2022/02/23 09:08:00;;;;;;;8.00;1.92;;;18.70;47.50;;;;;;7727763;22;1422879;-68
2022/02/23 09:11:01;;;;;;;5.07;1.75;;;18.70;47.30;;;;;;7797483;22;20018;-68
2022/02/23 09:14:01;;;;;;;6.45;1.60;;;18.70;47.30;;;;;;7796297;22;20458;-68
2022/02/23 09:17:02;;;;;;;6.32;1.75;;;18.70;47.30;;;;;;7797108;22;20018;-68
2022/02/23 09:20:03;;;;;;;7.00;1.50;;;18.70;47.30;;;;;;7796881;22;20003;-68
2022/02/23 09:23:04;;;;;;;9.55;1.40;;;18.70;47.30;;;;;;7796900;22;20055;-68
2022/02/23 09:26:05;;;;;;;4.82;1.65;;;18.70;47.30;;;;;;7795629;22;20011;-69
2022/02/23 09:29:06;;;;;;;9.93;1.85;;;18.70;47.30;;;;;;7797202;22;20000;-69
2022/02/23 09:32:07;;;;;;;8.77;1.92;;;18.70;47.30;;;;;;7796800;22;20010;-68
2022/02/23 09:35:09;;;;;;;10.52;1.85;;;18.70;47.20;;;;;;7796537;22;20623;-68
2022/02/23 09:38:11;;;;;;;8.15;1.83;;;18.70;47.20;;;;;;7796529;22;20074;-68
2022/02/23 09:41:16;;;;;;;5.72;1.83;;;18.70;47.30;;;;;;7796314;22;19999;-68
2022/02/23 09:44:17;;;;;;;9.17;1.73;;;18.80;47.40;;;;;;7796440;22;20339;-68
2022/02/23 09:47:18;;;;;;;5.68;1.60;;;18.80;47.30;;;;;;7795821;22;20241;-67
2022/02/23 09:50:20;;;;;;;4.45;1.40;;;18.80;47.40;;;;;;7796611;22;20009;-68
2022/02/23 09:53:22;;;;;;;6.00;1.88;;;18.80;47.40;;;;;;7795016;22;20058;-68
2022/02/23 09:56:23;;;;;;;4.72;1.73;;;18.80;47.50;;;;;;7796479;22;20446;-67
2022/02/23 09:59:25;;;;;;;5.22;1.40;;;18.80;47.40;;;;;;7796569;22;20088;-68
2022/02/23 10:02:26;;;;;;;3.72;1.40;;;18.80;47.50;;;;;;7796197;22;20402;-68
2022/02/23 10:05:26;;;;;;;5.80;1.42;;;18.80;47.40;;;;;;7795717;22;20086;-68
2022/02/23 10:08:35;;;;;;;3.92;1.52;;;18.80;47.40;;;;;;7788856;22;20015;-68
2022/02/23 10:11:36;;;;;;;4.05;1.58;;;18.80;47.40;;;;;;7787968;22;20003;-68
2022/02/23 10:14:37;;;;;;;5.75;1.70;;;18.80;47.40;;;;;;7787146;22;19999;-69
2022/02/23 10:17:44;;;;;;;5.38;1.50;;;18.80;47.40;;;;;;7778237;22;20042;-69
2022/02/23 10:20:45;;;;;;;3.50;1.30;;;18.80;47.40;;;;;;7787897;22;20000;-68
2022/02/23 10:23:47;;;;;;;6.13;1.80;;;18.80;47.40;;;;;;7787412;22;20015;-68
2022/02/23 10:27:15;;;;;;;8.38;1.98;;;18.70;46.90;;;;;;7787624;22;19999;-68
2022/02/23 10:30:27;;;;;;;10.38;2.20;;;18.70;46.30;;;;;;7781274;22;20014;-68
2022/02/23 10:33:30;;;;;;;27.08;5.05;;;18.70;45.30;;;;;;7787370;22;20061;-69
2022/02/23 10:36:33;;;;;;;21.23;3.38;;;18.70;44.90;;;;;;7788076;22;20077;-68
2022/02/23 10:39:49;;;;;;;17.52;3.75;;;18.70;43.90;;;;;;7787757;22;20513;-69
2022/02/23 10:42:50;;;;;;;12.55;3.17;;;18.70;43.80;;;;;;7786780;22;20332;-68
2022/02/23 10:45:59;;;;;;;16.35;3.75;;;18.70;44.40;;;;;;7786999;22;20011;-68
2022/02/23 10:49:01;;;;;;;19.55;2.50;;;18.70;44.90;;;;;;7787067;22;20011;-68
2022/02/23 10:52:06;;;;;;;21.27;2.90;;;18.80;45.30;;;;;;7787350;22;20034;-67
2022/02/23 10:55:23;;;;;;;9.27;2.67;;;18.80;45.50;;;;;;7770394;22;20007;-68
2022/02/23 10:58:26;;;;;;;9.73;2.75;;;18.80;45.60;;;;;;7787174;22;20062;-68
2022/02/23 11:01:27;;;;;;;11.25;2.63;;;18.80;45.80;;;;;;7788180;22;20034;-68
2022/02/23 11:04:28;;;;;;;13.18;2.78;;;18.80;45.90;;;;;;7786677;22;20014;-68
2022/02/23 11:07:29;;;;;;;10.13;2.35;;;18.80;45.90;;;;;;7786858;22;20513;-68
2022/02/23 11:10:30;;;;;;;11.57;2.88;;;18.80;46.00;;;;;;7787475;22;20004;-68
2022/02/23 11:13:31;;;;;;;7.82;2.10;;;18.80;46.00;;;;;;7786898;22;20410;-68
2022/02/23 11:16:32;;;;;;;7.25;2.13;;;18.80;46.10;;;;;;7786458;22;20083;-68
2022/02/23 11:19:37;;;;;;;8.02;2.50;;;18.80;46.20;;;;;;7786569;22;20003;-68
2022/02/23 11:22:39;;;;;;;10.07;2.10;;;18.70;46.10;;;;;;7786924;22;20030;-68
2022/02/23 11:25:41;;;;;;;8.48;2.25;;;18.80;46.20;;;;;;7786678;22;20006;-69
2022/02/23 11:28:51;;;;;;;8.73;2.03;;;18.80;46.30;;;;;;7786674;22;20067;-68
2022/02/23 11:31:54;;;;;;;8.05;2.30;;;18.80;46.30;;;;;;7786673;22;20477;-68
2022/02/23 11:34:54;;;;;;;6.53;2.22;;;18.80;46.30;;;;;;7787018;22;20087;-69
2022/02/23 11:37:57;;;;;;;10.07;2.10;;;18.80;46.30;;;;;;7776429;22;20011;-68
2022/02/23 11:40:59;;;;;;;5.00;1.80;;;18.80;46.40;;;;;;7777371;22;20066;-68
2022/02/23 11:44:27;;;;;;;6.10;2.00;;;18.80;46.40;;;;;;7781011;22;20007;-68
2022/02/23 11:47:47;;;;;;;7.20;2.35;;;18.80;46.50;;;;;;7786264;22;20023;-68
2022/02/23 11:54:55;;;;;;;8.43;2.40;;;18.70;44.80;;;;;;7785847;22;20007;-68
2022/02/23 11:58:34;;;;;;;10.85;3.38;;;18.70;44.10;;;;;;7786322;22;20382;-69
2022/02/23 12:01:47;;;;;;;10.65;2.58;;;18.70;43.30;;;;;;7786378;22;20004;-67
2022/02/23 12:04:50;;;;;;;7.72;2.47;;;18.70;43.60;;;;;;7786030;22;20029;-69
2022/02/23 12:07:54;;;;;;;6.28;2.08;;;18.70;44.10;;;;;;7785671;22;20019;-68
2022/02/23 12:10:55;;;;;;;6.20;2.13;;;18.80;44.50;;;;;;7786408;22;20050;-69
2022/02/23 12:13:56;;;;;;;7.57;2.22;;;18.80;44.70;;;;;;7785793;22;20408;-67
2022/02/23 12:16:59;;;;;;;9.18;2.72;;;18.80;45.00;;;;;;7786443;22;20012;-69
2022/02/23 12:20:00;;;;;;;9.55;2.53;;;18.80;45.10;;;;;;7786891;22;20454;-68
2022/02/23 12:23:18;;;;;;;10.30;2.40;;;18.80;45.30;;;;;;7785901;22;20079;-68
2022/02/23 12:26:21;;;;;;;8.13;2.22;;;18.80;45.40;;;;;;7765283;22;19996;-68
2022/02/23 12:29:26;;;;;;;12.50;2.70;;;18.80;45.50;;;;;;7785725;22;20022;-68
2022/02/23 12:32:27;;;;;;;7.85;2.03;;;18.80;45.50;;;;;;7765181;22;20008;-68
2022/02/23 12:35:28;;;;;;;6.38;2.33;;;18.80;45.60;;;;;;7786140;22;20008;-68
2022/02/23 12:38:33;;;;;;;7.95;2.20;;;18.80;45.60;;;;;;7785958;22;20007;-68
2022/02/23 12:41:35;;;;;;;8.10;2.45;;;18.80;45.60;;;;;;7764587;22;20018;-68
2022/02/23 12:44:37;;;;;;;4.38;1.77;;;18.80;45.70;;;;;;7785523;22;19999;-67
2022/02/23 12:47:40;;;;;;;8.85;2.38;;;18.80;45.70;;;;;;7785197;22;20331;-68
2022/02/23 12:50:40;;;;;;;6.93;2.33;;;18.80;45.80;;;;;;7780455;22;20094;-68
2022/02/23 12:53:44;;;;;;;6.90;1.85;;;18.80;45.90;;;;;;7785799;22;20011;-68
2022/02/23 12:56:47;;;;;;;7.63;2.22;;;18.80;46.00;;;;;;7785368;22;20099;-68
2022/02/23 12:59:49;;;;;;;5.30;1.85;;;18.80;46.10;;;;;;7785358;22;20011;-68
2022/02/23 13:02:49;;;;;;;6.13;2.10;;;18.80;46.10;;;;;;7786017;22;20050;-68
2022/02/23 13:05:55;;;;;;;7.15;2.45;;;18.80;46.20;;;;;;7785481;22;20447;-68
2022/02/23 13:09:00;;;;;;;7.85;2.17;;;18.80;46.20;;;;;;7785872;22;20316;-68
2022/02/23 13:12:04;;;;;;;7.53;1.95;;;18.80;46.40;;;;;;7785756;22;20032;-68
2022/02/23 13:15:08;;;;;;;8.60;2.13;;;18.70;45.20;;;;;;7785088;22;20000;-69
2022/02/23 13:18:10;;;;;;;8.65;2.28;;;18.80;44.30;;;;;;7785891;22;19999;-68
2022/02/23 13:21:16;;;;;;;6.00;1.80;;;18.80;44.70;;;;;;7785411;22;20031;-69
2022/02/23 13:24:19;;;;;;;5.40;2.08;;;18.80;45.00;;;;;;7784927;22;20004;-67
2022/02/23 13:27:22;;;;;;;5.70;1.63;;;18.70;45.10;;;;;;7770324;22;20541;-67
2022/02/23 13:30:23;;;;;;;7.28;1.75;;;18.80;45.40;;;;;;7785177;22;20094;-69
2022/02/23 13:33:25;;;;;;;6.63;2.10;;;18.80;45.60;;;;;;7784943;22;20427;-69
2022/02/23 13:36:25;;;;;;;8.45;2.15;;;18.80;45.60;;;;;;7785366;22;20007;-69
2022/02/23 13:39:32;;;;;;;5.93;1.98;;;18.80;45.60;;;;;;7785356;22;20004;-68
2022/02/23 13:42:35;;;;;;;6.13;1.80;;;18.80;45.80;;;;;;7786194;22;20003;-68
2022/02/23 13:45:36;;;;;;;8.07;1.90;;;18.80;45.80;;;;;;7787789;22;20004;-68
2022/02/23 13:48:37;;;;;;;6.40;1.70;;;18.80;45.90;;;;;;7787279;22;20079;-68
2022/02/23 13:51:43;;;;;;;4.72;1.63;;;18.80;45.80;;;;;;7787367;22;20305;-68
2022/02/23 13:54:58;;;;;;;5.35;1.63;;;18.70;45.80;;;;;;7787503;22;20058;-69
2022/02/23 13:57:59;;;;;;;5.97;2.00;;;18.80;45.90;;;;;;7787507;22;20050;-69
2022/02/23 14:01:00;;;;;;;12.80;1.83;;;18.80;45.90;;;;;;7787405;22;20079;-69
2022/02/23 14:04:08;;;;;;;5.20;1.65;;;18.80;45.90;;;;;;7787408;22;20008;-68
2022/02/23 14:07:11;;;;;;;7.00;2.05;;;18.80;45.90;;;;;;7787469;22;20023;-68
2022/02/23 14:10:24;;;;;;;4.45;1.60;;;18.80;46.00;;;;;;7787641;22;20027;-69
2022/02/23 14:13:36;;;;;;;6.20;1.77;;;18.80;46.00;;;;;;7787891;22;20011;-69
2022/02/23 14:16:42;;;;;;;3.25;1.50;;;18.80;46.10;;;;;;7787798;22;20251;-69
2022/02/23 14:19:44;;;;;;;6.47;1.77;;;18.80;46.10;;;;;;7787663;22;20454;-69
2022/02/23 14:22:47;;;;;;;4.25;1.30;;;18.80;45.90;;;;;;7786759;22;20039;-69
2022/02/23 14:26:01;;;;;;;4.97;1.50;;;18.80;46.80;;;;;;7786481;22;20008;-67
2022/02/23 14:29:05;;;;;;;5.88;1.65;;;18.80;46.00;;;;;;7787169;22;20304;-68
2022/02/23 14:32:17;;;;;;;4.70;1.23;;;18.80;46.00;;;;;;7787852;22;20323;-68
2022/02/23 14:35:25;;;;;;;5.70;1.52;;;18.80;46.00;;;;;;7787405;22;20577;-68
2022/02/23 14:38:25;;;;;;;6.25;1.60;;;18.80;46.10;;;;;;7787553;22;20082;-68
2022/02/23 14:41:27;;;;;;;4.20;1.50;;;18.80;45.80;;;;;;7787080;22;20012;-69
2022/02/23 14:44:27;;;;;;;3.45;1.30;;;18.80;46.00;;;;;;7787686;22;20003;-68
2022/02/23 14:47:28;;;;;;;3.03;1.15;;;18.80;46.00;;;;;;7787332;22;20022;-69
2022/02/23 14:50:29;;;;;;;2.42;1.10;;;18.80;46.00;;;;;;7787342;22;20082;-68
2022/02/23 14:53:31;;;;;;;5.72;1.95;;;18.80;46.10;;;;;;7787072;22;20004;-68
2022/02/23 14:56:33;;;;;;;2.40;1.20;;;18.80;46.10;;;;;;7787202;22;20007;-69
2022/02/23 14:59:34;;;;;;;4.82;1.75;;;18.80;46.00;;;;;;7786898;22;20007;-69
2022/02/23 15:02:36;;;;;;;4.60;1.58;;;18.80;46.00;;;;;;7786756;22;20435;-69
2022/02/23 15:05:38;;;;;;;3.38;1.33;;;18.80;46.10;;;;;;7787052;22;20004;-68
2022/02/23 15:08:40;;;;;;;4.85;1.70;;;18.80;46.10;;;;;;7786771;22;20431;-68
2022/02/23 15:11:41;;;;;;;4.95;1.70;;;18.80;46.10;;;;;;7787681;22;20004;-68
2022/02/23 15:14:41;;;;;;;3.70;1.40;;;18.80;45.80;;;;;;7786763;22;20308;-68
2022/02/23 15:17:42;;;;;;;2.95;1.27;;;18.80;46.10;;;;;;7786745;22;20008;-68
2022/02/23 15:20:42;;;;;;;3.45;1.23;;;18.80;46.10;;;;;;7781466;22;20043;-68
2022/02/23 15:23:43;;;;;;;3.88;1.40;;;18.80;46.20;;;;;;7785242;22;20007;-69
2022/02/23 15:26:43;;;;;;;3.22;1.05;;;18.80;46.20;;;;;;7776100;22;20035;-68
2022/02/23 15:29:45;;;;;;;2.83;1.20;;;18.80;46.20;;;;;;7785786;22;20419;-68
2022/02/23 15:32:45;;;;;;;3.72;1.30;;;18.80;46.30;;;;;;7785764;22;20039;-68
2022/02/23 15:35:46;;;;;;;1.98;1.05;;;18.80;46.30;;;;;;7785125;22;20090;-68
2022/02/23 15:38:46;;;;;;;2.88;1.10;;;18.80;46.30;;;;;;7785776;22;20179;-68
2022/02/23 15:41:47;;;;;;;4.93;1.10;;;18.80;46.30;;;;;;7785151;22;20000;-68
2022/02/23 15:44:47;;;;;;;3.28;1.20;;;18.80;46.30;;;;;;7785700;22;20080;-65
2022/02/23 15:47:48;;;;;;;3.33;1.35;;;18.80;46.30;;;;;;7785129;22;20032;-69
2022/02/23 15:50:52;;;;;;;2.80;1.20;;;18.80;46.30;;;;;;7785062;22;20012;-68
2022/02/23 15:53:52;;;;;;;4.45;1.30;;;18.80;46.30;;;;;;7785789;22;20173;-68
2022/02/23 15:56:53;;;;;;;4.20;1.20;;;18.80;46.40;;;;;;7785428;22;20015;-68
2022/02/23 15:59:53;;;;;;;3.75;1.50;;;18.80;46.40;;;;;;7784977;22;20003;-67
2022/02/23 16:02:54;;;;;;;4.35;1.20;;;18.80;46.40;;;;;;7785218;22;20031;-69